createdAt,value
2022-11-26T00:04:53.747Z,10.70
2022-11-26T00:09:58.312Z,10.47
2022-11-26T00:15:17.005Z,9.20
2022-11-26T00:20:25.146Z,9.90
2022-11-26T00:26:03.704Z,9.40
2022-11-26T00:31:14.402Z,11.43
2022-11-26T00:36:31.303Z,12.50
2022-11-26T00:41:39.100Z,11.00
2022-11-26T00:46:42.117Z,12.10
2022-11-26T00:51:46.451Z,10.13
2022-11-26T00:56:50.747Z,10.43
2022-11-26T01:01:54.083Z,10.83
2022-11-26T01:06:56.875Z,10.90
2022-11-26T01:11:59.776Z,10.73
2022-11-26T01:17:02.758Z,12.27
2022-11-26T01:22:05.739Z,10.80
2022-11-26T01:27:12.106Z,11.57
2022-11-26T01:32:15.268Z,10.37
2022-11-26T01:37:18.110Z,10.93
2022-11-26T01:42:45.316Z,10.47
2022-11-26T01:47:48.684Z,8.20
2022-11-26T01:52:52.555Z,8.57
2022-11-26T01:57:55.497Z,8.57
2022-11-26T02:02:58.450Z,10.13
2022-11-26T02:08:02.290Z,8.53
2022-11-26T02:13:05.883Z,9.83
2022-11-26T02:18:09.927Z,10.00
2022-11-26T02:24:06.405Z,9.70
2022-11-26T02:29:15.106Z,9.20
2022-11-26T02:34:34.371Z,7.47
2022-11-26T02:39:40.367Z,8.33
2022-11-26T02:44:45.494Z,7.57
2022-11-26T02:49:50.448Z,8.77
2022-11-26T02:54:54.661Z,8.30
2022-11-26T02:59:58.246Z,7.60
2022-11-26T03:05:03.852Z,7.40
2022-11-26T03:10:07.817Z,8.57
2022-11-26T03:15:11.547Z,8.17
2022-11-26T03:20:16.234Z,7.13
2022-11-26T03:25:19.445Z,8.33
2022-11-26T03:30:22.905Z,7.87
2022-11-26T03:35:25.913Z,6.27
2022-11-26T03:40:28.833Z,6.90
2022-11-26T03:45:31.759Z,8.50
2022-11-26T03:50:34.680Z,7.23
2022-11-26T03:55:37.583Z,7.03
2022-11-26T04:00:40.496Z,8.50
2022-11-26T04:05:43.381Z,7.50
2022-11-26T04:10:46.248Z,6.53
2022-11-26T04:15:49.517Z,7.27
2022-11-26T04:20:53.496Z,6.60
2022-11-26T04:25:56.520Z,7.60
2022-11-26T04:30:59.462Z,6.73
2022-11-26T04:36:02.404Z,7.37
2022-11-26T04:41:05.731Z,6.60
2022-11-26T04:46:08.710Z,7.83
2022-11-26T04:51:11.610Z,7.07
2022-11-26T04:56:14.712Z,6.73
2022-11-26T05:01:17.687Z,7.40
2022-11-26T05:06:21.109Z,5.80
2022-11-26T05:11:24.151Z,5.70
2022-11-26T05:16:27.166Z,7.73
2022-11-26T05:21:30.192Z,6.17
2022-11-26T05:26:33.060Z,7.83
2022-11-26T05:31:36.108Z,7.53
2022-11-26T05:36:38.945Z,7.53
2022-11-26T05:41:41.946Z,7.67
2022-11-26T05:46:44.858Z,7.80
2022-11-26T05:51:47.791Z,7.37
2022-11-26T05:56:53.125Z,6.70
2022-11-26T06:01:59.977Z,6.43
2022-11-26T06:07:02.850Z,5.97
2022-11-26T06:12:07.242Z,6.87
2022-11-26T06:17:10.652Z,5.97
2022-11-26T06:22:13.701Z,6.20
2022-11-26T06:27:16.568Z,5.57
2022-11-26T06:32:20.109Z,6.03
2022-11-26T06:37:23.023Z,5.23
2022-11-26T06:42:26.129Z,5.87
2022-11-26T06:47:28.926Z,5.43
2022-11-26T06:52:31.619Z,5.57
2022-11-26T06:57:34.597Z,6.53
2022-11-26T07:02:38.510Z,8.63
2022-11-26T07:07:42.083Z,7.00
2022-11-26T07:12:45.080Z,7.43
2022-11-26T07:17:47.763Z,8.73
2022-11-26T07:22:50.779Z,8.77
2022-11-26T07:27:53.658Z,8.87
2022-11-26T07:32:56.629Z,9.50
2022-11-26T07:37:59.870Z,9.53
2022-11-26T07:43:02.916Z,8.50
2022-11-26T07:48:06.083Z,11.13
2022-11-26T07:53:08.779Z,9.03
2022-11-26T07:58:11.788Z,10.13
2022-11-26T08:03:14.801Z,11.37
2022-11-26T08:08:17.817Z,11.30
2022-11-26T08:13:20.784Z,10.10
2022-11-26T08:18:23.850Z,10.07
2022-11-26T08:23:28.450Z,11.83
2022-11-26T08:28:31.322Z,9.70
2022-11-26T08:33:35.350Z,15.23
2022-11-26T08:38:38.987Z,11.47
2022-11-26T08:44:05.545Z,11.23
2022-11-26T08:49:06.287Z,11.97
2022-11-26T08:54:10.147Z,12.17
2022-11-26T08:59:13.064Z,10.67
2022-11-26T09:04:16.387Z,13.30
2022-11-26T09:09:19.750Z,14.67
2022-11-26T09:14:26.316Z,11.00
2022-11-26T09:19:29.371Z,15.33
2022-11-26T09:24:32.313Z,11.37
2022-11-26T09:29:35.134Z,12.53
2022-11-26T09:34:38.532Z,13.03
2022-11-26T09:39:42.938Z,11.13
2022-11-26T09:45:01.753Z,10.87
2022-11-26T09:50:13.896Z,11.87
2022-11-26T09:55:26.210Z,13.70
2022-11-26T10:00:37.507Z,12.97
2022-11-26T10:05:52.455Z,17.73
2022-11-26T10:11:38.806Z,15.33
2022-11-26T10:16:50.734Z,30.60
2022-11-26T10:22:00.636Z,16.67
2022-11-26T10:27:26.835Z,13.83
2022-11-26T10:32:42.525Z,17.83
2022-11-26T10:37:46.026Z,14.57
2022-11-26T10:43:21.593Z,55.13
2022-11-26T10:48:29.284Z,17.37
2022-11-26T10:53:49.428Z,17.97
2022-11-26T10:58:54.270Z,15.23
2022-11-26T11:04:13.881Z,15.83
2022-11-26T11:09:31.857Z,15.93
2022-11-26T11:14:41.111Z,20.27
2022-11-26T11:19:45.500Z,16.43
2022-11-26T11:24:49.192Z,15.00
2022-11-26T11:29:52.523Z,19.20
2022-11-26T11:34:55.438Z,15.77
2022-11-26T11:40:17.026Z,16.17
2022-11-26T11:45:42.823Z,16.00
2022-11-26T11:51:15.125Z,14.83
2022-11-26T12:02:17.987Z,14.47
2022-11-26T12:07:37.596Z,13.73
2022-11-26T12:12:52.515Z,12.37
2022-11-26T12:18:31.588Z,23.37
2022-11-26T12:23:48.969Z,14.83
2022-11-26T12:29:13.206Z,31.73
2022-11-26T12:34:39.286Z,16.37
2022-11-26T12:40:06.406Z,16.23
2022-11-26T12:45:19.936Z,55.43
2022-11-26T12:51:03.116Z,21.63
2022-11-26T12:56:41.864Z,16.13
2022-11-26T13:01:44.757Z,16.10
2022-11-26T13:06:53.913Z,15.23
2022-11-26T13:12:18.334Z,16.40
2022-11-26T13:17:38.002Z,14.23
2022-11-26T13:23:24.185Z,13.83
2022-11-26T13:28:54.491Z,13.47
2022-11-26T13:34:03.079Z,14.80
2022-11-26T13:39:49.102Z,20.20
2022-11-26T13:45:14.412Z,16.37
2022-11-26T13:50:43.431Z,15.80
2022-11-26T13:55:52.548Z,17.17
2022-11-26T14:00:56.600Z,26.33
2022-11-26T14:06:03.632Z,21.90
2022-11-26T14:11:11.037Z,24.77
2022-11-26T14:16:13.978Z,26.87
2022-11-26T14:21:19.363Z,15.13
2022-11-26T14:26:40.076Z,14.67
2022-11-26T14:31:54.644Z,11.80
2022-11-26T14:37:00.795Z,12.90
2022-11-26T14:42:06.341Z,20.27
2022-11-26T14:47:20.832Z,27.87
2022-11-26T14:52:34.562Z,40.43
2022-11-26T14:58:13.483Z,14.77
2022-11-26T15:03:24.608Z,17.07
2022-11-26T15:08:27.766Z,13.52
2022-11-26T15:13:43.034Z,21.67
2022-11-26T15:18:46.508Z,18.67
2022-11-26T15:23:52.258Z,20.17
2022-11-26T15:28:55.238Z,17.53
2022-11-26T15:33:58.704Z,19.57
2022-11-26T15:39:08.012Z,18.17
2022-11-26T15:44:26.720Z,14.03
2022-11-26T15:49:40.261Z,18.57
2022-11-26T15:55:11.928Z,22.10
2022-11-26T16:05:38.785Z,19.50
2022-11-26T16:10:41.963Z,25.77
2022-11-26T16:16:16.950Z,18.63
2022-11-26T16:21:32.989Z,17.00
2022-11-26T16:27:00.992Z,14.37
2022-11-26T16:32:04.133Z,14.80
2022-11-26T16:37:30.039Z,21.17
2022-11-26T16:42:33.352Z,13.83
2022-11-26T16:47:49.923Z,16.20
2022-11-26T16:52:54.317Z,16.33
2022-11-26T16:58:01.327Z,20.30
2022-11-26T17:03:04.449Z,32.53
2022-11-26T17:08:12.029Z,32.83
2022-11-26T17:13:15.700Z,41.27
2022-11-26T17:18:25.260Z,35.57
2022-11-26T17:23:28.942Z,26.73
2022-11-26T17:28:31.889Z,18.97
2022-11-26T17:33:34.791Z,18.03
2022-11-26T17:38:37.851Z,16.97
2022-11-26T17:43:41.159Z,15.60
2022-11-26T17:48:44.687Z,16.67
2022-11-26T17:53:47.978Z,15.43
2022-11-26T17:58:51.344Z,19.00
2022-11-26T18:03:54.244Z,17.63
2022-11-26T18:08:57.156Z,16.80
2022-11-26T18:13:59.960Z,16.40
2022-11-26T18:19:02.803Z,17.67
2022-11-26T18:24:07.844Z,29.40
2022-11-26T18:29:11.890Z,27.47
2022-11-26T18:34:14.902Z,34.40
2022-11-26T18:39:17.938Z,30.03
2022-11-26T18:44:20.864Z,75.23
2022-11-26T18:49:24.380Z,41.27
2022-11-26T18:54:27.277Z,46.37
2022-11-26T18:59:30.318Z,36.47
2022-11-26T19:04:33.318Z,31.97
2022-11-26T19:09:37.990Z,31.73
2022-11-26T19:14:41.113Z,44.00
2022-11-26T19:19:44.063Z,33.30
2022-11-26T19:24:48.558Z,33.83
2022-11-26T19:29:51.576Z,35.90
2022-11-26T19:34:54.716Z,42.57
2022-11-26T19:39:57.627Z,31.03
2022-11-26T19:45:00.525Z,31.40
2022-11-26T19:50:03.680Z,31.83
2022-11-26T19:55:07.006Z,28.13
2022-11-26T20:00:10.867Z,33.43
2022-11-26T20:05:13.920Z,35.90
2022-11-26T20:10:16.864Z,31.37
2022-11-26T20:15:19.679Z,27.53
2022-11-26T20:20:22.717Z,37.03
2022-11-26T20:25:25.599Z,30.23
2022-11-26T20:30:29.259Z,29.63
2022-11-26T20:35:32.212Z,37.03
2022-11-26T20:40:35.351Z,25.03
2022-11-26T20:45:38.787Z,39.17
2022-11-26T20:50:41.777Z,28.60
2022-11-26T20:55:54.149Z,33.33
2022-11-26T21:00:57.904Z,41.93
2022-11-26T21:06:04.139Z,31.03
2022-11-26T21:11:08.214Z,29.67
2022-11-26T21:16:16.570Z,28.10
2022-11-26T21:21:21.249Z,26.13
2022-11-26T21:26:26.019Z,31.67
2022-11-26T21:31:31.206Z,32.77
2022-11-26T21:36:36.167Z,26.77
2022-11-26T21:41:39.036Z,27.77
2022-11-26T21:46:42.052Z,29.80
2022-11-26T21:51:45.029Z,25.80
2022-11-26T21:56:48.068Z,29.13
2022-11-26T22:01:51.270Z,28.17
2022-11-26T22:06:54.235Z,26.13
2022-11-26T22:11:57.225Z,21.90
2022-11-26T22:16:59.953Z,22.27
2022-11-26T22:22:02.804Z,23.97
2022-11-26T22:27:05.689Z,24.77
2022-11-26T22:32:08.591Z,24.30
2022-11-26T22:37:11.497Z,20.43
2022-11-26T22:42:14.497Z,19.97
2022-11-26T22:47:17.352Z,26.87
2022-11-26T22:52:20.789Z,23.60
2022-11-26T22:57:25.548Z,19.70
2022-11-26T23:02:29.418Z,22.27
2022-11-26T23:07:32.807Z,27.00
2022-11-26T23:12:35.700Z,21.90
2022-11-26T23:17:38.534Z,22.90
2022-11-26T23:22:41.433Z,20.77
2022-11-26T23:27:44.910Z,21.13
2022-11-26T23:32:48.131Z,19.60
2022-11-26T23:37:51.084Z,23.97
2022-11-26T23:42:54.027Z,23.50
2022-11-26T23:47:56.934Z,25.63
2022-11-26T23:52:59.798Z,18.63
2022-11-26T23:58:02.728Z,18.23
